DSX weather

Dongsha Island Airport
Pratas Island, Kaohsiung (municipality), Taiwan

Public forecast

Using degrees Celsius for public forecast. Weather courtesy of forecast.io.

METAR (pilot weather report)

Closest report is Hong Kong International Airport, 183.9 nm (340.6 km) WNW. Retrieved 2019/07/19 15:30 UTC (59 seconds ago):

VHHH 191530Z 21012KT 9999 FEW018 SCT040 30/27 Q1004 NOSIG

TAF (pilot weather forecast)

Closest forecast is Hong Kong International Airport, 183.9 nm (340.6 km) WNW. Retrieved 2019/07/19 12:39 UTC (3 hours ago):

TAF VHHH 191100Z 1912/2018 23010KT 8000 FEW015 SCT025 TX33/2006Z TN28/1922Z TEMPO 1912/1914 VRB20G30KT 3000 -TSRA SHRA FEW008CB SCT020 TEMPO 1922/2006 4000 SHRA